Time;durP1;ratioP1;P1;durP2;ratioP2;P2;SDS_P1;SDS_P2;PMS_P1;PMS_P2;Temp;Humidity;BMP_temperature;BMP_pressure;BME280_temperature;BME280_humidity;BME280_pressure;Samples;Min_cycle;Max_cycle;Signal;HPM_P1;HPM_P2
2021/12/29 00:01:54;;;;;;;12.13;6.53;;;;;;;18.03;43.94;99348.19;4428062;32;20586;-71
2021/12/29 00:04:20;;;;;;;11.50;6.55;;;;;;;17.95;43.87;99338.66;4432427;32;20116;-71
2021/12/29 00:06:45;;;;;;;12.65;5.53;;;;;;;17.92;44.05;99353.13;4428350;32;20154;-71
2021/12/29 00:09:11;;;;;;;13.18;4.90;;;;;;;17.88;43.86;99339.94;4428280;32;20069;-71
2021/12/29 00:11:39;;;;;;;9.48;4.37;;;;;;;17.92;43.50;99345.37;4432780;32;20460;-71
2021/12/29 00:14:07;;;;;;;10.90;5.12;;;;;;;17.70;43.74;99353.97;4421796;32;20617;-71
2021/12/29 00:16:35;;;;;;;16.55;7.37;;;;;;;17.65;43.92;99338.44;4420339;32;20458;-71
2021/12/29 00:19:03;;;;;;;16.83;8.43;;;;;;;17.67;43.95;99337.94;4419913;32;20042;-71
2021/12/29 00:21:29;;;;;;;15.02;7.90;;;;;;;17.69;44.36;99333.28;4417855;32;20056;-71
2021/12/29 00:23:59;;;;;;;15.63;6.72;;;;;;;17.51;44.47;99335.91;4421600;32;20030;-71
2021/12/29 00:26:27;;;;;;;13.15;6.80;;;;;;;17.45;44.62;99333.06;4416245;32;20122;-71
2021/12/29 00:28:54;;;;;;;11.15;5.12;;;;;;;17.52;44.09;99335.38;4418554;32;20423;-71
2021/12/29 00:31:20;;;;;;;11.93;5.37;;;;;;;17.58;44.15;99324.00;4419135;32;20454;-71
2021/12/29 00:33:46;;;;;;;16.65;6.62;;;;;;;17.48;44.13;99326.34;4418740;32;20053;-71
2021/12/29 00:36:12;;;;;;;10.65;5.68;;;;;;;17.30;44.38;99326.84;4420268;32;20802;-71
2021/12/29 00:38:38;;;;;;;15.63;6.00;;;;;;;17.27;44.54;99342.09;4418679;32;20034;-71
2021/12/29 00:41:04;;;;;;;11.12;5.00;;;;;;;17.11;45.00;99359.94;4422293;32;20069;-70
2021/12/29 00:43:29;;;;;;;7.85;4.75;;;;;;;16.98;45.24;99368.22;4419527;32;20049;-70
2021/12/29 00:45:55;;;;;;;14.45;5.97;;;;;;;16.82;45.25;99371.03;4415138;32;20088;-70
2021/12/29 00:48:24;;;;;;;10.20;5.12;;;;;;;16.93;45.07;99360.44;4418306;32;20056;-71
2021/12/29 00:50:50;;;;;;;13.80;5.60;;;;;;;17.02;45.06;99371.56;4417735;32;20060;-70
2021/12/29 00:53:16;;;;;;;12.43;5.78;;;;;;;16.70;45.17;99367.41;4418109;32;20085;-70
2021/12/29 00:55:42;;;;;;;12.95;6.05;;;;;;;16.85;45.19;99375.69;4418518;32;20420;-70
2021/12/29 00:58:08;;;;;;;11.10;6.15;;;;;;;17.03;45.01;99384.47;4419492;32;20077;-70
2021/12/29 01:00:37;;;;;;;13.40;5.90;;;;;;;17.14;44.80;99384.50;4417370;32;20085;-70
2021/12/29 01:03:04;;;;;;;10.30;5.50;;;;;;;17.28;44.65;99391.97;4417728;32;20053;-70
2021/12/29 01:05:30;;;;;;;11.10;6.25;;;;;;;17.17;44.24;99388.34;4419073;32;20034;-70
2021/12/29 01:07:56;;;;;;;10.27;5.90;;;;;;;16.95;44.91;99383.44;4417427;32;20218;-70
2021/12/29 01:10:21;;;;;;;15.20;7.28;;;;;;;16.98;44.87;99382.41;4417629;32;20029;-70
2021/12/29 01:12:56;;;;;;;15.52;6.82;;;;;;;16.81;44.95;99384.44;4419255;32;20491;-70
2021/12/29 01:15:31;;;;;;;14.93;6.75;;;;;;;16.95;44.95;99388.34;4414973;32;20316;-70
2021/12/29 01:17:58;;;;;;;15.75;7.82;;;;;;;17.10;44.77;99398.19;4417266;32;20042;-70
2021/12/29 01:20:25;;;;;;;20.52;9.13;;;;;;;16.99;45.03;99386.00;4415290;32;20038;-70
2021/12/29 01:22:51;;;;;;;17.08;8.95;;;;;;;16.73;45.33;99382.63;4414847;32;20042;-70
2021/12/29 01:25:18;;;;;;;20.55;8.88;;;;;;;16.64;45.50;99383.66;4418467;32;20452;-70
2021/12/29 01:27:44;;;;;;;16.75;9.13;;;;;;;16.82;45.23;99380.34;4419263;32;20573;-70
2021/12/29 01:30:11;;;;;;;17.42;9.50;;;;;;;16.65;45.43;99375.87;4414788;32;20065;-70
2021/12/29 01:32:38;;;;;;;19.87;10.82;;;;;;;16.83;45.13;99367.66;4417450;32;20057;-70
2021/12/29 01:35:05;;;;;;;23.83;9.90;;;;;;;16.84;45.23;99365.62;4419064;32;20069;-70
2021/12/29 01:37:30;;;;;;;20.50;10.18;;;;;;;16.67;45.57;99376.94;4417605;32;20073;-70
2021/12/29 01:39:56;;;;;;;17.02;9.93;;;;;;;16.60;45.61;99376.66;4419225;32;20052;-70
2021/12/29 01:42:22;;;;;;;17.23;9.73;;;;;;;16.61;45.43;99364.00;4419705;32;20050;-70
2021/12/29 01:44:48;;;;;;;18.12;10.38;;;;;;;16.56;45.38;99362.69;4416445;32;20034;-70
2021/12/29 01:47:24;;;;;;;19.12;10.48;;;;;;;16.62;45.51;99368.37;4419522;32;21706;-70
2021/12/29 01:49:50;;;;;;;21.00;11.27;;;;;;;16.88;44.80;99378.25;4420376;32;20069;-70
2021/12/29 01:52:21;;;;;;;19.77;11.30;;;;;;;16.45;45.86;99374.03;4419446;32;20087;-71
2021/12/29 01:54:46;;;;;;;22.67;11.43;;;;;;;16.50;45.94;99364.00;4418850;32;20075;-70
2021/12/29 01:57:12;;;;;;;16.23;10.52;;;;;;;16.46;45.80;99363.44;4418767;32;20034;-70
2021/12/29 01:59:38;;;;;;;20.52;10.65;;;;;;;16.38;45.82;99371.66;4417952;32;20462;-70
2021/12/29 02:02:04;;;;;;;23.15;10.90;;;;;;;16.51;45.56;99371.97;4418549;32;20163;-70
2021/12/29 02:04:30;;;;;;;18.70;11.02;;;;;;;16.57;45.41;99364.25;4417568;32;20021;-70
2021/12/29 02:06:55;;;;;;;24.05;11.93;;;;;;;16.57;45.24;99364.25;4419892;32;20094;-70
2021/12/29 02:09:21;;;;;;;22.62;11.07;;;;;;;16.42;45.55;99368.56;4418354;32;20064;-70
2021/12/29 02:11:47;;;;;;;19.48;11.48;;;;;;;16.43;45.56;99359.56;4417707;32;20077;-70
2021/12/29 02:14:14;;;;;;;23.40;11.75;;;;;;;16.37;45.68;99353.06;4421837;32;20077;-70
2021/12/29 02:16:39;;;;;;;21.58;11.93;;;;;;;16.35;45.34;99354.88;4419180;32;20115;-70
2021/12/29 02:19:08;;;;;;;25.10;11.70;;;;;;;16.25;45.65;99357.16;4417992;32;20377;-70
2021/12/29 02:21:34;;;;;;;22.75;11.60;;;;;;;16.36;45.43;99348.69;4414003;32;20404;-70
2021/12/29 02:26:47;;;;;;;19.23;11.23;;;;;;;16.34;45.22;99345.56;3982832;32;15021643;-70
2021/12/29 02:29:17;;;;;;;21.67;12.00;;;;;;;16.21;45.62;99341.66;4430702;32;20044;-70
2021/12/29 02:31:43;;;;;;;20.37;10.70;;;;;;;16.24;45.73;99341.41;4427180;32;20062;-71
2021/12/29 02:34:11;;;;;;;24.45;11.57;;;;;;;16.05;45.93;99331.81;4428151;32;20063;-71
2021/12/29 02:36:43;;;;;;;24.60;12.48;;;;;;;15.98;45.78;99335.91;4431121;32;20095;-71
2021/12/29 02:39:13;;;;;;;22.02;11.68;;;;;;;15.83;46.10;99326.78;4430807;32;20065;-71
2021/12/29 02:41:43;;;;;;;21.55;12.32;;;;;;;15.77;46.31;99339.38;4432060;32;20037;-71
2021/12/29 02:44:15;;;;;;;27.30;11.57;;;;;;;15.69;46.42;99335.50;4427717;32;20095;-71
2021/12/29 02:46:42;;;;;;;31.12;11.52;;;;;;;15.46;46.49;99334.56;4432654;32;20077;-71
2021/12/29 02:49:08;;;;;;;18.37;10.75;;;;;;;15.35;46.63;99333.69;4429806;32;20046;-70
2021/12/29 02:51:34;;;;;;;20.33;9.85;;;;;;;15.32;46.61;99327.00;4433569;32;20110;-70
2021/12/29 02:54:01;;;;;;;20.48;10.77;;;;;;;15.24;46.75;99333.59;4432171;32;20033;-71
2021/12/29 02:56:28;;;;;;;21.15;9.98;;;;;;;15.30;46.77;99332.38;4426765;32;20076;-70
2021/12/29 02:58:55;;;;;;;24.83;10.35;;;;;;;15.16;46.91;99326.88;4430380;32;20532;-71
2021/12/29 03:01:22;;;;;;;22.73;10.82;;;;;;;15.15;46.86;99325.28;4430431;32;20061;-70
2021/12/29 03:03:48;;;;;;;18.62;10.32;;;;;;;15.05;47.16;99329.59;4429846;32;20092;-70
2021/12/29 03:06:14;;;;;;;29.70;9.60;;;;;;;15.08;46.81;99346.37;4431422;32;20060;-71
2021/12/29 03:08:41;;;;;;;18.58;9.25;;;;;;;15.02;47.03;99348.38;4429337;32;20087;-70
2021/12/29 03:11:08;;;;;;;14.48;7.65;;;;;;;15.07;47.00;99350.47;4428073;32;20344;-70
2021/12/29 03:13:37;;;;;;;18.17;9.10;;;;;;;14.97;47.10;99348.34;4429249;32;20518;-70
2021/12/29 03:16:03;;;;;;;22.30;8.52;;;;;;;15.04;47.22;99331.66;4429825;32;20123;-70
2021/12/29 03:18:29;;;;;;;15.70;7.93;;;;;;;15.00;47.14;99338.84;4431076;32;20063;-70
2021/12/29 03:20:55;;;;;;;18.65;8.43;;;;;;;14.97;46.78;99325.69;4429536;32;20061;-70
2021/12/29 03:23:22;;;;;;;14.82;7.80;;;;;;;15.11;46.65;99319.09;4423573;32;20391;-70
2021/12/29 03:25:49;;;;;;;16.70;7.60;;;;;;;15.14;46.53;99310.38;4422694;32;20417;-70
2021/12/29 03:28:17;;;;;;;17.10;7.82;;;;;;;15.29;46.40;99313.03;4430043;32;20089;-70
2021/12/29 03:30:46;;;;;;;16.52;8.18;;;;;;;15.45;46.20;99318.84;4431314;32;20358;-70
2021/12/29 03:33:12;;;;;;;14.77;7.75;;;;;;;15.48;45.90;99326.34;4429901;32;20530;-70
2021/12/29 03:35:43;;;;;;;14.18;8.10;;;;;;;15.48;45.90;99317.06;4425861;32;21070;-70
2021/12/29 03:38:13;;;;;;;16.27;7.78;;;;;;;15.74;45.49;99309.22;4418588;32;20478;-70
2021/12/29 03:40:40;;;;;;;17.12;7.45;;;;;;;15.59;45.46;99302.97;4416377;32;20072;-70
2021/12/29 03:43:08;;;;;;;13.60;7.10;;;;;;;15.67;45.38;99290.63;4420081;32;20406;-70
2021/12/29 03:45:37;;;;;;;14.65;7.45;;;;;;;15.88;45.43;99288.38;4422863;32;20126;-70
2021/12/29 03:48:04;;;;;;;14.85;6.90;;;;;;;15.85;45.24;99286.56;4419974;32;20311;-70
2021/12/29 03:50:30;;;;;;;16.25;7.30;;;;;;;15.91;45.06;99287.38;4415014;32;20158;-70
2021/12/29 03:52:56;;;;;;;14.60;6.53;;;;;;;15.98;45.04;99281.19;4420886;32;20483;-70
2021/12/29 03:55:21;;;;;;;18.73;8.20;;;;;;;16.12;45.02;99279.44;4418484;32;20049;-70
2021/12/29 03:57:47;;;;;;;15.18;7.32;;;;;;;16.03;44.98;99297.47;4418692;32;20533;-70
2021/12/29 04:00:16;;;;;;;13.52;6.55;;;;;;;16.17;44.73;99298.56;4418212;32;20100;-70
2021/12/29 04:02:43;;;;;;;12.82;6.45;;;;;;;16.22;44.05;99300.63;4418239;32;20427;-70
2021/12/29 04:05:13;;;;;;;12.55;6.80;;;;;;;16.23;44.98;99317.13;4422314;32;20038;-70
2021/12/29 04:07:46;;;;;;;14.07;6.85;;;;;;;16.34;44.65;99299.37;4418322;32;20041;-70
2021/12/29 04:10:12;;;;;;;14.32;7.35;;;;;;;16.26;44.60;99316.13;4420356;32;20430;-70
2021/12/29 04:12:39;;;;;;;12.02;6.80;;;;;;;16.40;44.47;99303.00;4419040;32;20081;-70
2021/12/29 04:15:09;;;;;;;13.27;6.65;;;;;;;16.45;44.03;99286.03;4421875;32;20091;-70
2021/12/29 04:17:37;;;;;;;14.70;6.32;;;;;;;16.68;43.87;99293.28;4422519;32;20042;-70
2021/12/29 04:22:53;;;;;;;17.52;6.43;;;;;;;16.44;44.22;99286.53;4416882;32;20033;-70
2021/12/29 04:25:23;;;;;;;13.62;6.10;;;;;;;16.43;44.18;99274.41;4418218;32;20435;-70
2021/12/29 04:27:51;;;;;;;15.40;6.15;;;;;;;16.47;44.20;99277.00;4419507;32;20067;-70
2021/12/29 04:30:17;;;;;;;13.80;6.70;;;;;;;16.61;44.15;99275.97;4417836;32;20067;-70
2021/12/29 04:32:43;;;;;;;10.50;5.93;;;;;;;16.48;44.11;99265.12;4419324;32;20152;-70
2021/12/29 04:35:09;;;;;;;14.00;6.60;;;;;;;16.43;44.21;99267.91;4423219;32;20057;-70
2021/12/29 04:37:35;;;;;;;15.23;6.72;;;;;;;16.54;44.14;99277.22;4417481;32;20043;-70
2021/12/29 04:40:02;;;;;;;13.20;6.55;;;;;;;16.46;44.27;99266.91;4419501;32;20461;-70
2021/12/29 04:42:28;;;;;;;11.30;5.72;;;;;;;16.23;44.67;99268.87;4416653;32;20226;-70
2021/12/29 04:44:53;;;;;;;13.73;6.45;;;;;;;16.18;44.33;99258.31;4418877;32;20049;-70
2021/12/29 04:47:19;;;;;;;11.82;6.10;;;;;;;16.21;44.48;99254.44;4417323;32;20469;-70
2021/12/29 04:49:45;;;;;;;13.35;5.87;;;;;;;16.21;44.65;99248.00;4419035;32;20076;-70
2021/12/29 04:52:13;;;;;;;12.98;6.78;;;;;;;16.32;44.43;99248.78;4417808;32;20478;-70
2021/12/29 04:54:39;;;;;;;12.85;6.72;;;;;;;16.37;44.33;99239.50;4419118;32;20046;-70
2021/12/29 04:57:05;;;;;;;15.20;6.47;;;;;;;16.38;44.26;99234.62;4417899;32;20029;-70
2021/12/29 04:59:31;;;;;;;10.90;5.80;;;;;;;16.39;44.48;99231.25;4419796;32;20069;-70
2021/12/29 05:01:57;;;;;;;16.15;7.28;;;;;;;16.35;44.71;99230.72;4417045;32;20700;-70
2021/12/29 05:04:31;;;;;;;12.50;6.70;;;;;;;16.30;44.57;99225.84;4415515;32;20093;-70
2021/12/29 05:09:42;;;;;;;;;;;;;;;16.45;44.54;99220.72;4416161;32;20050;-70
2021/12/29 05:12:08;;;;;;;12.13;6.22;;;;;;;16.88;43.80;99215.53;4418364;32;19991;-69
2021/12/29 05:14:35;;;;;;;12.85;6.37;;;;;;;16.41;44.62;99211.62;4419462;32;20395;-69
2021/12/29 05:17:02;;;;;;;15.20;6.90;;;;;;;16.44;44.59;99209.88;4418306;32;20136;-69
2021/12/29 05:19:27;;;;;;;18.48;6.95;;;;;;;16.49;44.69;99195.66;4415887;32;20093;-69
2021/12/29 05:21:53;;;;;;;13.05;6.70;;;;;;;16.50;44.26;99197.22;4417978;32;20128;-69
2021/12/29 05:24:19;;;;;;;19.12;7.57;;;;;;;16.19;45.11;99191.75;4418980;32;20060;-69
2021/12/29 05:26:45;;;;;;;12.60;6.93;;;;;;;16.32;44.79;99189.16;4416930;32;20050;-69
2021/12/29 05:29:10;;;;;;;13.25;7.10;;;;;;;16.33;44.92;99195.63;4413353;32;20425;-70
2021/12/29 05:31:36;;;;;;;20.05;7.28;;;;;;;16.42;44.61;99198.22;4417014;32;20438;-70
2021/12/29 05:34:02;;;;;;;13.27;6.82;;;;;;;16.30;44.84;99197.44;4419392;32;20053;-70
2021/12/29 05:36:28;;;;;;;12.35;6.78;;;;;;;16.33;44.98;99196.41;4419922;32;20144;-70
2021/12/29 05:38:55;;;;;;;18.23;8.05;;;;;;;16.19;45.31;99193.78;4418395;32;20047;-70
2021/12/29 05:41:21;;;;;;;13.25;7.53;;;;;;;16.16;45.28;99189.16;4415255;32;20557;-70
2021/12/29 05:43:47;;;;;;;13.23;7.10;;;;;;;16.28;45.11;99188.66;4422571;32;20038;-70
2021/12/29 05:46:13;;;;;;;12.90;6.95;;;;;;;16.39;45.05;99185.06;4420319;32;20113;-70
2021/12/29 05:48:40;;;;;;;13.02;7.50;;;;;;;16.33;45.20;99189.94;4421232;32;20046;-70
2021/12/29 05:51:06;;;;;;;12.37;7.03;;;;;;;16.56;44.91;99191.53;4418221;32;20370;-70
2021/12/29 05:53:31;;;;;;;20.35;7.78;;;;;;;16.49;44.69;99192.84;4417317;32;20061;-70
2021/12/29 05:55:57;;;;;;;16.23;8.45;;;;;;;16.31;44.96;99196.16;4417808;32;20422;-70
2021/12/29 05:58:23;;;;;;;14.93;8.48;;;;;;;16.45;45.08;99178.13;4419597;32;20041;-70
2021/12/29 06:00:49;;;;;;;17.77;8.05;;;;;;;16.51;45.11;99183.81;4415071;32;20386;-70
2021/12/29 06:03:15;;;;;;;16.55;8.63;;;;;;;16.59;44.76;99177.06;4421712;32;20097;-70
2021/12/29 06:05:41;;;;;;;17.27;8.63;;;;;;;16.63;44.68;99163.37;4418056;32;20096;-70
2021/12/29 06:08:07;;;;;;;16.23;8.77;;;;;;;16.63;44.77;99154.09;4414397;32;20422;-70
2021/12/29 06:10:33;;;;;;;17.00;8.75;;;;;;;16.56;44.87;99158.22;4413403;32;20038;-71
2021/12/29 06:12:59;;;;;;;16.02;8.82;;;;;;;16.57;44.87;99151.25;4416411;32;20091;-70
2021/12/29 06:15:25;;;;;;;21.27;8.80;;;;;;;16.66;44.75;99153.81;4420400;32;20049;-70
2021/12/29 06:17:51;;;;;;;16.08;8.60;;;;;;;16.66;44.72;99145.31;4418924;32;20085;-70
2021/12/29 06:20:17;;;;;;;18.55;9.70;;;;;;;16.67;44.71;99138.34;4419647;32;20094;-70
2021/12/29 06:22:43;;;;;;;19.60;8.85;;;;;;;16.65;44.65;99123.87;4417425;32;20426;-70
2021/12/29 06:25:11;;;;;;;20.17;8.85;;;;;;;16.71;44.62;99123.87;4415148;32;20729;-70
2021/12/29 06:27:37;;;;;;;17.20;9.05;;;;;;;16.84;44.77;99119.19;4417841;32;20090;-70
2021/12/29 06:30:06;;;;;;;22.15;9.02;;;;;;;16.71;44.71;99123.87;4413794;32;20038;-70
2021/12/29 06:32:32;;;;;;;16.02;9.05;;;;;;;17.03;44.05;99123.00;4415745;32;20101;-70
2021/12/29 06:34:58;;;;;;;18.55;8.82;;;;;;;16.67;44.64;99118.47;4415368;32;20694;-70
2021/12/29 06:37:24;;;;;;;20.70;9.60;;;;;;;16.71;44.57;99113.28;4416779;32;20108;-70
2021/12/29 06:39:50;;;;;;;21.02;10.38;;;;;;;16.73;44.56;99107.09;4418993;32;20077;-70
2021/12/29 06:42:17;;;;;;;20.37;10.00;;;;;;;16.44;45.46;99104.81;4413464;32;20622;-70
2021/12/29 06:44:45;;;;;;;24.95;10.93;;;;;;;16.70;44.97;99105.28;4418119;32;20061;-70
2021/12/29 06:47:12;;;;;;;23.27;11.48;;;;;;;16.62;45.13;99099.34;4419851;32;20094;-70
2021/12/29 06:49:38;;;;;;;21.35;10.32;;;;;;;16.36;45.66;99095.25;4414057;32;20052;-70
2021/12/29 06:52:05;;;;;;;19.70;10.85;;;;;;;16.58;45.30;99078.19;4417460;32;20330;-70
2021/12/29 06:54:32;;;;;;;26.20;12.02;;;;;;;16.61;45.76;99083.62;4418390;32;20505;-70
2021/12/29 06:56:58;;;;;;;23.45;11.57;;;;;;;16.37;46.03;99086.22;4420413;32;20041;-69
2021/12/29 06:59:25;;;;;;;23.70;12.55;;;;;;;16.10;46.73;99089.06;4418064;32;20352;-69
2021/12/29 07:01:50;;;;;;;24.08;12.37;;;;;;;16.41;46.08;99089.56;4417383;32;20101;-69
2021/12/29 07:04:18;;;;;;;22.00;12.60;;;;;;;16.33;46.44;99085.69;4418399;32;20086;-70
2021/12/29 07:06:44;;;;;;;28.98;12.02;;;;;;;16.51;46.39;99079.50;4415966;32;20340;-70
2021/12/29 07:09:11;;;;;;;27.62;12.57;;;;;;;16.16;46.94;99079.25;4413529;32;20114;-69
2021/12/29 07:11:37;;;;;;;21.52;10.93;;;;;;;16.23;47.26;99073.03;4417320;32;20099;-69
2021/12/29 07:14:05;;;;;;;28.92;12.10;;;;;;;16.09;47.59;99071.25;4422291;32;20116;-69
2021/12/29 07:16:32;;;;;;;20.50;10.65;;;;;;;15.98;48.19;99063.53;4431512;32;20462;-69
2021/12/29 07:18:59;;;;;;;21.55;11.02;;;;;;;16.10;47.97;99057.84;4419468;32;20340;-69
2021/12/29 07:21:24;;;;;;;20.37;9.73;;;;;;;15.99;48.20;99059.38;4419392;32;20085;-68
2021/12/29 07:23:51;;;;;;;22.30;10.32;;;;;;;15.91;48.21;99051.91;4420473;32;20114;-68
2021/12/29 07:26:18;;;;;;;18.48;9.85;;;;;;;15.81;48.62;99048.53;4420248;32;20570;-68
2021/12/29 07:28:44;;;;;;;22.37;9.65;;;;;;;15.89;48.59;99043.91;4419395;32;20151;-68
2021/12/29 07:31:10;;;;;;;20.00;9.82;;;;;;;16.08;48.26;99032.84;4419465;32;20331;-68
2021/12/29 07:33:36;;;;;;;20.05;9.63;;;;;;;16.08;48.53;99027.16;4418614;32;20145;-69
2021/12/29 07:36:01;;;;;;;18.70;9.40;;;;;;;15.74;48.90;99017.13;4421339;32;20060;-69
2021/12/29 07:38:28;;;;;;;17.35;9.48;;;;;;;15.62;49.74;98998.53;4417661;32;20038;-68
2021/12/29 07:40:53;;;;;;;18.33;9.13;;;;;;;15.60;49.65;98976.38;4417255;32;20128;-68
2021/12/29 07:43:19;;;;;;;19.05;8.98;;;;;;;15.30;50.20;98957.50;4419298;32;20121;-67
2021/12/29 07:45:45;;;;;;;16.90;7.95;;;;;;;15.32;50.32;98961.38;4420470;32;20045;-67
2021/12/29 07:48:11;;;;;;;17.35;8.48;;;;;;;15.38;50.35;98942.34;4421519;32;20465;-67
2021/12/29 07:50:37;;;;;;;15.30;8.18;;;;;;;15.64;49.74;98939.25;4417912;32;20060;-67
2021/12/29 07:53:04;;;;;;;17.83;8.35;;;;;;;15.62;50.01;98930.50;4419286;32;20189;-68
2021/12/29 07:55:31;;;;;;;17.23;8.88;;;;;;;15.89;49.55;98947.47;4417315;32;20548;-68
2021/12/29 07:57:57;;;;;;;16.58;8.48;;;;;;;16.05;49.13;98937.41;4419531;32;20107;-68
2021/12/29 08:00:24;;;;;;;17.48;8.82;;;;;;;15.69;49.75;98935.63;4419731;32;20121;-68
2021/12/29 08:02:51;;;;;;;16.55;8.30;;;;;;;15.62;50.18;98911.41;4418360;32;20069;-68
2021/12/29 08:05:17;;;;;;;21.60;9.27;;;;;;;15.36;50.74;98907.25;4421066;32;20037;-68
2021/12/29 08:07:42;;;;;;;20.17;8.63;;;;;;;15.30;50.91;98909.31;4417926;32;20037;-68
2021/12/29 08:10:08;;;;;;;21.65;9.60;;;;;;;15.40;50.96;98908.59;4417663;32;20659;-68
2021/12/29 08:12:35;;;;;;;20.55;9.07;;;;;;;15.41;50.93;98900.88;4416727;32;20073;-68
2021/12/29 08:15:03;;;;;;;24.23;10.00;;;;;;;15.55;50.84;98899.81;4421509;32;20092;-68
2021/12/29 08:17:32;;;;;;;19.95;10.38;;;;;;;15.60;50.69;98896.22;4419297;32;20470;-69
2021/12/29 08:19:59;;;;;;;24.55;9.50;;;;;;;15.83;50.24;98897.72;4419235;32;20069;-69
2021/12/29 08:22:25;;;;;;;19.90;9.82;;;;;;;15.42;51.51;98879.72;4416760;32;20175;-69
2021/12/29 08:24:51;;;;;;;25.75;10.35;;;;;;;15.46;51.39;98881.00;4421677;32;20534;-69
2021/12/29 08:27:17;;;;;;;23.55;10.07;;;;;;;15.18;51.99;98885.88;4421046;32;20100;-69
2021/12/29 08:29:43;;;;;;;22.75;9.95;;;;;;;15.45;51.53;98884.38;4417402;32;20486;-69
2021/12/29 08:32:09;;;;;;;23.45;11.10;;;;;;;15.19;51.84;98878.91;4416143;32;20085;-69
2021/12/29 08:34:35;;;;;;;23.30;10.55;;;;;;;15.52;51.64;98890.28;4417594;32;20077;-69
2021/12/29 08:37:02;;;;;;;26.55;11.05;;;;;;;15.29;51.90;98885.91;4421178;32;20144;-70
2021/12/29 08:39:27;;;;;;;23.77;11.15;;;;;;;15.09;52.82;98876.84;4416739;32;20074;-70
2021/12/29 08:41:53;;;;;;;25.15;11.65;;;;;;;14.87;53.28;98877.62;4416153;32;20042;-70
2021/12/29 08:44:19;;;;;;;28.77;11.60;;;;;;;15.07;52.46;98853.94;4419216;32;20046;-70
2021/12/29 08:46:46;;;;;;;32.30;11.90;;;;;;;15.17;52.82;98847.50;4418806;32;20112;-70
2021/12/29 08:49:12;;;;;;;26.60;11.35;;;;;;;15.32;52.76;98853.69;4415089;32;20152;-68
2021/12/29 08:51:38;;;;;;;23.80;11.30;;;;;;;14.92;53.68;98848.53;4416381;32;20089;-68
2021/12/29 08:54:04;;;;;;;27.58;11.68;;;;;;;14.91;53.80;98863.22;4416715;32;20085;-68
2021/12/29 08:56:30;;;;;;;22.23;11.12;;;;;;;14.89;54.10;98871.44;4420629;32;20502;-68
2021/12/29 08:58:57;;;;;;;22.92;11.40;;;;;;;15.26;53.13;98860.66;4418773;32;20260;-68
2021/12/29 09:01:24;;;;;;;25.52;11.30;;;;;;;15.39;53.25;98841.84;4419084;32;20081;-68
2021/12/29 09:03:50;;;;;;;24.17;11.43;;;;;;;15.50;53.16;98821.22;4415985;32;20046;-69
2021/12/29 09:06:17;;;;;;;20.88;9.15;;;;;;;15.38;52.89;98819.69;4421093;32;20074;-69
2021/12/29 09:08:44;;;;;;;22.87;9.07;;;;;;;15.59;52.86;98809.63;4416321;32;20063;-69
2021/12/29 09:11:11;;;;;;;17.27;8.40;;;;;;;15.82;52.65;98813.91;4416473;32;20222;-69
2021/12/29 09:13:37;;;;;;;20.20;8.20;;;;;;;15.81;52.54;98798.97;4416653;32;20070;-69
2021/12/29 09:16:04;;;;;;;12.25;7.32;;;;;;;15.55;53.04;98787.19;4418764;32;20076;-69
2021/12/29 09:18:32;;;;;;;14.80;7.85;;;;;;;15.80;52.88;98773.97;4420312;32;20093;-69
2021/12/29 09:21:06;;;;;;;17.67;8.02;;;;;;;15.47;53.47;98771.25;4418445;32;20058;-69
2021/12/29 09:23:33;;;;;;;11.88;7.18;;;;;;;15.54;53.56;98767.88;4419779;32;20081;-69
2021/12/29 09:25:59;;;;;;;12.68;7.62;;;;;;;15.62;53.21;98761.13;4418865;32;20510;-69
2021/12/29 09:28:25;;;;;;;19.35;8.40;;;;;;;15.65;53.17;98756.50;4419507;32;20225;-68
2021/12/29 09:30:52;;;;;;;17.87;8.25;;;;;;;15.60;53.77;98751.63;4416702;32;20178;-69
2021/12/29 09:33:19;;;;;;;15.30;8.32;;;;;;;15.76;53.47;98745.88;4420014;32;20345;-69
2021/12/29 09:35:47;;;;;;;14.98;8.30;;;;;;;15.71;53.79;98743.09;4414255;32;20046;-69
2021/12/29 09:38:15;;;;;;;13.90;6.97;;;;;;;16.08;53.17;98722.78;4419160;32;20065;-69
2021/12/29 09:40:41;;;;;;;14.82;7.60;;;;;;;16.25;52.63;98715.72;4419648;32;20060;-69
2021/12/29 09:43:07;;;;;;;9.70;6.20;;;;;;;15.99;53.25;98713.28;4416719;32;20427;-70
2021/12/29 09:45:36;;;;;;;12.18;6.20;;;;;;;16.14;52.89;98717.84;4418785;32;20111;-69
2021/12/29 09:48:02;;;;;;;12.00;5.90;;;;;;;16.42;52.66;98733.41;4417174;32;20103;-69
2021/12/29 09:50:28;;;;;;;9.82;5.90;;;;;;;16.37;52.61;98728.53;4418558;32;20050;-69
2021/12/29 09:52:54;;;;;;;8.63;5.37;;;;;;;16.58;51.91;98728.91;4413433;32;20691;-69
2021/12/29 09:55:21;;;;;;;7.87;5.15;;;;;;;16.34;52.70;98726.75;4416031;32;20090;-67
2021/12/29 09:57:50;;;;;;;10.50;5.18;;;;;;;16.27;52.54;98718.00;4415637;32;20056;-67
2021/12/29 10:03:00;;;;;;;6.50;3.95;;;;;;;17.00;52.09;98709.19;3982630;32;15046125;-68
2021/12/29 10:05:28;;;;;;;6.68;3.53;;;;;;;17.00;52.09;98709.19;4435210;32;20058;-69
2021/12/29 10:08:05;;;;;;;8.43;3.47;;;;;;;16.48;52.95;98694.44;4433154;32;20423;-70
2021/12/29 10:10:33;;;;;;;7.60;3.15;;;;;;;16.74;52.08;98676.88;4432406;32;20037;-70
2021/12/29 10:12:59;;;;;;;5.47;3.37;;;;;;;16.66;52.64;98685.22;4432470;32;20048;-70
2021/12/29 10:15:31;;;;;;;5.10;2.97;;;;;;;16.74;52.81;98680.50;4434241;32;20094;-70
2021/12/29 10:18:05;;;;;;;5.00;3.03;;;;;;;16.92;52.24;98656.31;4435208;32;20548;-70
2021/12/29 10:20:31;;;;;;;4.53;2.72;;;;;;;16.61;52.61;98666.19;4430174;32;20539;-70
2021/12/29 10:22:58;;;;;;;5.70;2.80;;;;;;;16.67;52.71;98664.06;4436165;32;20042;-70
2021/12/29 10:25:25;;;;;;;3.65;2.47;;;;;;;16.75;53.07;98665.00;4433422;32;20045;-70
2021/12/29 10:27:52;;;;;;;3.47;2.30;;;;;;;16.63;53.19;98655.03;4435732;32;20449;-70
2021/12/29 10:33:09;;;;;;;4.60;2.67;;;;;;;17.22;52.07;98626.56;3983366;32;15028624;-71
2021/12/29 10:35:35;;;;;;;3.17;2.20;;;;;;;17.16;51.90;98625.06;4432788;32;20033;-71
2021/12/29 10:38:20;;;;;;;5.22;2.53;;;;;;;16.88;52.89;98619.66;4429498;32;20025;-71
2021/12/29 10:40:46;;;;;;;4.18;2.30;;;;;;;17.55;51.58;98623.31;4432628;32;20484;-70
2021/12/29 10:43:13;;;;;;;2.22;1.58;;;;;;;17.44;51.86;98617.78;4433707;32;20069;-71
2021/12/29 10:45:41;;;;;;;2.92;1.62;;;;;;;17.47;51.86;98639.44;4432417;32;20059;-70
2021/12/29 10:48:24;;;;;;;3.33;1.55;;;;;;;17.81;51.47;98622.69;4426768;32;20065;-70
2021/12/29 10:53:37;;;;;;;4.35;2.28;;;;;;;18.56;50.79;98629.06;3994181;31;15016594;-71
2021/12/29 10:56:05;;;;;;;4.28;1.40;;;;;;;18.56;50.79;98629.06;4452242;32;20101;-70
2021/12/29 10:58:35;;;;;;;3.03;1.33;;;;;;;18.07;51.62;98616.38;4451835;32;20645;-70
2021/12/29 11:03:49;;;;;;;1.55;0.90;;;;;;;18.75;51.41;98621.22;3966413;32;15022396;-71
2021/12/29 11:06:19;;;;;;;1.92;0.90;;;;;;;18.75;51.41;98621.22;4417408;32;20128;-71
2021/12/29 11:11:33;;;;;;;1.50;0.50;;;;;;;19.19;50.71;98578.38;3979932;32;15021156;-70
2021/12/29 11:14:12;;;;;;;3.47;1.25;;;;;;;19.19;50.71;98578.38;4436231;32;20072;-70
2021/12/29 11:16:40;;;;;;;1.35;0.90;;;;;;;18.77;51.42;98582.31;4428968;32;20512;-69
2021/12/29 11:19:07;;;;;;;3.55;2.30;;;;;;;18.41;52.56;98583.22;4432481;32;20162;-69
2021/12/29 11:21:36;;;;;;;3.40;1.05;;;;;;;18.33;52.50;98576.59;4434812;32;20077;-69
2021/12/29 11:24:20;;;;;;;2.55;0.98;;;;;;;18.56;52.14;98569.25;4436616;32;20060;-69
2021/12/29 11:26:49;;;;;;;1.08;0.70;;;;;;;18.54;52.37;98578.34;4432369;32;20117;-70
2021/12/29 11:29:18;;;;;;;1.70;1.15;;;;;;;18.34;52.84;98572.44;4435282;32;20529;-70
2021/12/29 11:31:48;;;;;;;1.25;0.88;;;;;;;17.99;54.18;98572.75;4435072;32;20532;-70
2021/12/29 11:34:17;;;;;;;3.17;1.40;;;;;;;18.12;53.92;98559.34;4432912;32;20060;-70
2021/12/29 11:36:45;;;;;;;1.05;0.60;;;;;;;18.38;53.69;98550.91;4438224;32;20109;-70
2021/12/29 11:39:11;;;;;;;1.87;1.00;;;;;;;18.02;54.73;98548.91;4432786;32;20125;-70
2021/12/29 11:41:37;;;;;;;1.60;0.85;;;;;;;17.91;55.36;98544.16;4435080;32;20033;-70
2021/12/29 11:44:03;;;;;;;1.83;0.90;;;;;;;18.16;54.61;98542.72;4435720;32;20063;-70
2021/12/29 11:46:28;;;;;;;3.30;0.80;;;;;;;17.99;55.38;98524.38;4433930;32;20732;-68